sensor_id;sensor_type;location;lat;lon;timestamp;P1;durP1;ratioP1;P2;durP2;ratioP2
66609;SDS011;53468;48.276;14.416;2023-03-07T00:05:03;18.20;;;8.82;;
66609;SDS011;53468;48.276;14.416;2023-03-07T00:10:06;18.45;;;9.65;;
66609;SDS011;53468;48.276;14.416;2023-03-07T00:15:10;18.90;;;9.23;;
66609;SDS011;53468;48.276;14.416;2023-03-07T00:20:13;22.42;;;8.85;;
66609;SDS011;53468;48.276;14.416;2023-03-07T00:25:17;15.05;;;7.10;;
66609;SDS011;53468;48.276;14.416;2023-03-07T00:30:19;21.55;;;10.32;;
66609;SDS011;53468;48.276;14.416;2023-03-07T00:35:23;20.33;;;9.57;;
66609;SDS011;53468;48.276;14.416;2023-03-07T00:40:25;20.13;;;8.85;;
66609;SDS011;53468;48.276;14.416;2023-03-07T00:45:27;19.00;;;9.10;;
66609;SDS011;53468;48.276;14.416;2023-03-07T00:50:31;18.20;;;9.07;;
66609;SDS011;53468;48.276;14.416;2023-03-07T00:55:34;19.05;;;8.75;;
66609;SDS011;53468;48.276;14.416;2023-03-07T01:00:37;20.75;;;9.75;;
66609;SDS011;53468;48.276;14.416;2023-03-07T01:05:40;21.42;;;10.00;;
66609;SDS011;53468;48.276;14.416;2023-03-07T01:10:43;15.80;;;8.60;;
66609;SDS011;53468;48.276;14.416;2023-03-07T01:15:48;21.98;;;9.32;;
66609;SDS011;53468;48.276;14.416;2023-03-07T01:20:52;19.85;;;8.82;;
66609;SDS011;53468;48.276;14.416;2023-03-07T01:25:54;26.45;;;11.35;;
66609;SDS011;53468;48.276;14.416;2023-03-07T01:30:57;22.88;;;9.30;;
66609;SDS011;53468;48.276;14.416;2023-03-07T01:36:01;24.17;;;10.27;;
66609;SDS011;53468;48.276;14.416;2023-03-07T01:41:04;23.67;;;9.48;;
66609;SDS011;53468;48.276;14.416;2023-03-07T01:56:55;16.33;;;8.70;;
66609;SDS011;53468;48.276;14.416;2023-03-07T02:01:59;19.30;;;9.45;;
66609;SDS011;53468;48.276;14.416;2023-03-07T02:07:07;25.45;;;11.57;;
66609;SDS011;53468;48.276;14.416;2023-03-07T02:12:10;18.50;;;10.43;;
66609;SDS011;53468;48.276;14.416;2023-03-07T02:17:14;18.95;;;9.50;;
66609;SDS011;53468;48.276;14.416;2023-03-07T02:22:18;19.08;;;9.25;;
66609;SDS011;53468;48.276;14.416;2023-03-07T02:27:22;19.13;;;9.27;;
66609;SDS011;53468;48.276;14.416;2023-03-07T02:32:25;18.73;;;10.00;;
66609;SDS011;53468;48.276;14.416;2023-03-07T02:37:28;20.17;;;10.55;;
66609;SDS011;53468;48.276;14.416;2023-03-07T02:42:36;22.60;;;10.07;;
66609;SDS011;53468;48.276;14.416;2023-03-07T02:47:41;17.48;;;9.75;;
66609;SDS011;53468;48.276;14.416;2023-03-07T02:52:44;23.48;;;10.27;;
66609;SDS011;53468;48.276;14.416;2023-03-07T02:57:48;23.13;;;11.18;;
66609;SDS011;53468;48.276;14.416;2023-03-07T03:02:50;16.58;;;9.57;;
66609;SDS011;53468;48.276;14.416;2023-03-07T03:07:53;28.08;;;11.65;;
66609;SDS011;53468;48.276;14.416;2023-03-07T03:12:57;20.00;;;10.00;;
66609;SDS011;53468;48.276;14.416;2023-03-07T03:17:59;21.13;;;10.55;;
66609;SDS011;53468;48.276;14.416;2023-03-07T03:23:01;24.77;;;11.18;;
66609;SDS011;53468;48.276;14.416;2023-03-07T03:28:05;24.30;;;9.93;;
66609;SDS011;53468;48.276;14.416;2023-03-07T03:33:07;17.73;;;10.15;;
66609;SDS011;53468;48.276;14.416;2023-03-07T03:38:10;20.27;;;10.23;;
66609;SDS011;53468;48.276;14.416;2023-03-07T03:43:14;25.13;;;10.25;;
66609;SDS011;53468;48.276;14.416;2023-03-07T03:48:16;22.33;;;10.45;;
66609;SDS011;53468;48.276;14.416;2023-03-07T03:53:18;27.10;;;12.05;;
66609;SDS011;53468;48.276;14.416;2023-03-07T03:58:22;23.30;;;11.00;;
66609;SDS011;53468;48.276;14.416;2023-03-07T04:03:24;24.75;;;11.85;;
66609;SDS011;53468;48.276;14.416;2023-03-07T04:08:26;23.33;;;11.55;;
66609;SDS011;53468;48.276;14.416;2023-03-07T04:13:30;20.00;;;10.95;;
66609;SDS011;53468;48.276;14.416;2023-03-07T04:18:32;21.83;;;11.05;;
66609;SDS011;53468;48.276;14.416;2023-03-07T04:23:35;19.25;;;9.80;;
66609;SDS011;53468;48.276;14.416;2023-03-07T04:28:39;21.52;;;10.75;;
66609;SDS011;53468;48.276;14.416;2023-03-07T04:33:54;18.77;;;10.13;;
66609;SDS011;53468;48.276;14.416;2023-03-07T04:38:57;22.20;;;10.45;;
66609;SDS011;53468;48.276;14.416;2023-03-07T04:44:00;24.80;;;11.43;;
66609;SDS011;53468;48.276;14.416;2023-03-07T04:49:03;17.83;;;10.10;;
66609;SDS011;53468;48.276;14.416;2023-03-07T04:54:05;22.60;;;10.48;;
66609;SDS011;53468;48.276;14.416;2023-03-07T04:59:09;22.67;;;11.07;;
66609;SDS011;53468;48.276;14.416;2023-03-07T05:04:11;23.60;;;11.13;;
66609;SDS011;53468;48.276;14.416;2023-03-07T05:09:13;23.52;;;11.15;;
66609;SDS011;53468;48.276;14.416;2023-03-07T05:14:17;23.20;;;10.93;;
66609;SDS011;53468;48.276;14.416;2023-03-07T05:19:19;19.45;;;10.57;;
66609;SDS011;53468;48.276;14.416;2023-03-07T05:24:21;23.48;;;11.70;;
66609;SDS011;53468;48.276;14.416;2023-03-07T05:29:24;27.30;;;10.68;;
66609;SDS011;53468;48.276;14.416;2023-03-07T05:34:26;27.33;;;12.55;;
66609;SDS011;53468;48.276;14.416;2023-03-07T05:39:28;24.48;;;11.55;;
66609;SDS011;53468;48.276;14.416;2023-03-07T05:44:32;19.00;;;10.18;;
66609;SDS011;53468;48.276;14.416;2023-03-07T05:49:34;20.45;;;9.63;;
66609;SDS011;53468;48.276;14.416;2023-03-07T05:54:40;26.73;;;10.88;;
66609;SDS011;53468;48.276;14.416;2023-03-07T05:59:44;26.65;;;12.30;;
66609;SDS011;53468;48.276;14.416;2023-03-07T06:04:46;18.90;;;9.43;;
66609;SDS011;53468;48.276;14.416;2023-03-07T06:09:49;23.25;;;10.77;;
66609;SDS011;53468;48.276;14.416;2023-03-07T06:14:55;22.30;;;11.25;;
66609;SDS011;53468;48.276;14.416;2023-03-07T06:19:58;21.42;;;10.20;;
66609;SDS011;53468;48.276;14.416;2023-03-07T06:25:07;25.50;;;12.32;;
66609;SDS011;53468;48.276;14.416;2023-03-07T06:30:13;19.55;;;10.52;;
66609;SDS011;53468;48.276;14.416;2023-03-07T06:35:21;25.42;;;11.93;;
66609;SDS011;53468;48.276;14.416;2023-03-07T06:40:24;26.73;;;11.38;;
66609;SDS011;53468;48.276;14.416;2023-03-07T06:45:31;21.92;;;9.93;;
66609;SDS011;53468;48.276;14.416;2023-03-07T06:50:33;22.15;;;10.02;;
66609;SDS011;53468;48.276;14.416;2023-03-07T06:55:35;20.30;;;9.38;;
66609;SDS011;53468;48.276;14.416;2023-03-07T07:00:41;15.18;;;8.85;;
66609;SDS011;53468;48.276;14.416;2023-03-07T07:05:43;19.15;;;9.52;;
66609;SDS011;53468;48.276;14.416;2023-03-07T07:10:46;22.33;;;10.98;;
66609;SDS011;53468;48.276;14.416;2023-03-07T07:15:50;17.70;;;9.43;;
66609;SDS011;53468;48.276;14.416;2023-03-07T07:20:53;16.27;;;8.88;;
66609;SDS011;53468;48.276;14.416;2023-03-07T07:25:55;22.42;;;10.25;;
66609;SDS011;53468;48.276;14.416;2023-03-07T07:31:00;15.05;;;8.00;;
66609;SDS011;53468;48.276;14.416;2023-03-07T07:36:04;15.05;;;9.00;;
66609;SDS011;53468;48.276;14.416;2023-03-07T07:41:08;16.00;;;9.23;;
66609;SDS011;53468;48.276;14.416;2023-03-07T07:46:13;16.00;;;8.15;;
66609;SDS011;53468;48.276;14.416;2023-03-07T07:51:15;15.98;;;7.90;;
66609;SDS011;53468;48.276;14.416;2023-03-07T07:56:18;16.15;;;8.20;;
66609;SDS011;53468;48.276;14.416;2023-03-07T08:01:24;15.35;;;7.57;;
66609;SDS011;53468;48.276;14.416;2023-03-07T08:06:27;16.85;;;8.05;;
66609;SDS011;53468;48.276;14.416;2023-03-07T08:11:30;15.75;;;7.22;;
66609;SDS011;53468;48.276;14.416;2023-03-07T08:16:38;20.13;;;8.38;;
66609;SDS011;53468;48.276;14.416;2023-03-07T08:21:43;16.20;;;8.00;;
66609;SDS011;53468;48.276;14.416;2023-03-07T08:26:50;14.43;;;7.18;;
66609;SDS011;53468;48.276;14.416;2023-03-07T08:32:06;14.10;;;7.50;;
66609;SDS011;53468;48.276;14.416;2023-03-07T08:37:29;16.30;;;7.20;;
66609;SDS011;53468;48.276;14.416;2023-03-07T08:42:36;13.40;;;6.90;;
66609;SDS011;53468;48.276;14.416;2023-03-07T08:47:47;16.55;;;6.93;;
66609;SDS011;53468;48.276;14.416;2023-03-07T08:52:54;19.77;;;7.38;;
66609;SDS011;53468;48.276;14.416;2023-03-07T08:57:57;14.88;;;6.85;;
66609;SDS011;53468;48.276;14.416;2023-03-07T09:03:02;13.02;;;5.38;;
66609;SDS011;53468;48.276;14.416;2023-03-07T09:08:06;14.15;;;7.38;;
66609;SDS011;53468;48.276;14.416;2023-03-07T09:13:09;16.08;;;6.65;;
66609;SDS011;53468;48.276;14.416;2023-03-07T09:18:15;13.70;;;5.95;;
66609;SDS011;53468;48.276;14.416;2023-03-07T09:23:17;13.02;;;6.45;;
66609;SDS011;53468;48.276;14.416;2023-03-07T09:28:19;14.05;;;6.10;;
66609;SDS011;53468;48.276;14.416;2023-03-07T09:33:24;12.20;;;6.60;;
66609;SDS011;53468;48.276;14.416;2023-03-07T09:38:26;12.18;;;5.93;;
66609;SDS011;53468;48.276;14.416;2023-03-07T09:43:31;10.10;;;6.38;;
66609;SDS011;53468;48.276;14.416;2023-03-07T09:48:54;16.77;;;5.97;;
66609;SDS011;53468;48.276;14.416;2023-03-07T09:54:09;14.15;;;5.88;;
66609;SDS011;53468;48.276;14.416;2023-03-07T09:59:15;13.40;;;6.93;;
66609;SDS011;53468;48.276;14.416;2023-03-07T10:04:26;15.35;;;6.78;;
66609;SDS011;53468;48.276;14.416;2023-03-07T10:09:37;10.15;;;5.22;;
66609;SDS011;53468;48.276;14.416;2023-03-07T10:14:50;10.98;;;6.03;;
66609;SDS011;53468;48.276;14.416;2023-03-07T10:20:14;12.45;;;5.78;;
66609;SDS011;53468;48.276;14.416;2023-03-07T10:25:24;9.23;;;5.32;;
66609;SDS011;53468;48.276;14.416;2023-03-07T10:30:29;14.00;;;5.07;;
66609;SDS011;53468;48.276;14.416;2023-03-07T10:35:38;11.93;;;5.03;;
66609;SDS011;53468;48.276;14.416;2023-03-07T10:40:49;11.98;;;6.30;;
66609;SDS011;53468;48.276;14.416;2023-03-07T10:45:57;9.45;;;5.45;;
66609;SDS011;53468;48.276;14.416;2023-03-07T10:51:10;11.65;;;5.90;;
66609;SDS011;53468;48.276;14.416;2023-03-07T10:56:26;9.70;;;5.55;;
66609;SDS011;53468;48.276;14.416;2023-03-07T11:01:29;10.02;;;5.45;;
66609;SDS011;53468;48.276;14.416;2023-03-07T11:06:50;8.27;;;5.50;;
66609;SDS011;53468;48.276;14.416;2023-03-07T11:12:09;13.27;;;5.55;;
66609;SDS011;53468;48.276;14.416;2023-03-07T11:17:17;9.02;;;4.82;;
66609;SDS011;53468;48.276;14.416;2023-03-07T11:22:24;14.80;;;5.85;;
66609;SDS011;53468;48.276;14.416;2023-03-07T11:27:34;14.88;;;5.65;;
66609;SDS011;53468;48.276;14.416;2023-03-07T11:32:41;11.15;;;5.68;;
66609;SDS011;53468;48.276;14.416;2023-03-07T11:37:55;10.30;;;5.40;;
66609;SDS011;53468;48.276;14.416;2023-03-07T11:43:15;11.45;;;6.47;;
66609;SDS011;53468;48.276;14.416;2023-03-07T11:48:31;11.90;;;6.80;;
66609;SDS011;53468;48.276;14.416;2023-03-07T11:53:51;9.52;;;5.85;;
66609;SDS011;53468;48.276;14.416;2023-03-07T11:59:28;10.25;;;5.10;;
66609;SDS011;53468;48.276;14.416;2023-03-07T12:04:52;13.43;;;6.90;;
66609;SDS011;53468;48.276;14.416;2023-03-07T12:10:13;11.10;;;6.57;;
66609;SDS011;53468;48.276;14.416;2023-03-07T12:20:36;12.70;;;6.25;;
66609;SDS011;53468;48.276;14.416;2023-03-07T12:25:48;10.27;;;5.55;;
66609;SDS011;53468;48.276;14.416;2023-03-07T12:31:00;14.88;;;6.85;;
66609;SDS011;53468;48.276;14.416;2023-03-07T12:36:08;14.18;;;6.35;;
66609;SDS011;53468;48.276;14.416;2023-03-07T12:46:50;12.75;;;6.85;;
66609;SDS011;53468;48.276;14.416;2023-03-07T12:52:00;11.00;;;6.00;;
66609;SDS011;53468;48.276;14.416;2023-03-07T12:57:11;13.50;;;6.68;;
66609;SDS011;53468;48.276;14.416;2023-03-07T13:02:19;12.90;;;6.38;;
66609;SDS011;53468;48.276;14.416;2023-03-07T13:07:42;15.88;;;6.82;;
66609;SDS011;53468;48.276;14.416;2023-03-07T13:12:49;13.05;;;6.13;;
66609;SDS011;53468;48.276;14.416;2023-03-07T13:17:59;17.10;;;6.67;;
66609;SDS011;53468;48.276;14.416;2023-03-07T13:23:33;12.07;;;6.07;;
66609;SDS011;53468;48.276;14.416;2023-03-07T13:39:40;13.02;;;6.20;;
66609;SDS011;53468;48.276;14.416;2023-03-07T13:56:18;13.48;;;5.50;;
66609;SDS011;53468;48.276;14.416;2023-03-07T14:01:26;11.68;;;7.15;;
66609;SDS011;53468;48.276;14.416;2023-03-07T14:06:33;12.55;;;6.10;;
66609;SDS011;53468;48.276;14.416;2023-03-07T14:11:41;18.88;;;7.15;;
66609;SDS011;53468;48.276;14.416;2023-03-07T14:22:21;14.90;;;7.68;;
66609;SDS011;53468;48.276;14.416;2023-03-07T14:27:47;13.48;;;7.03;;
66609;SDS011;53468;48.276;14.416;2023-03-07T14:32:52;15.02;;;8.07;;
66609;SDS011;53468;48.276;14.416;2023-03-07T14:37:54;12.40;;;7.40;;
66609;SDS011;53468;48.276;14.416;2023-03-07T14:42:59;14.63;;;7.63;;
66609;SDS011;53468;48.276;14.416;2023-03-07T14:48:22;14.52;;;6.78;;
66609;SDS011;53468;48.276;14.416;2023-03-07T14:53:42;13.32;;;6.78;;
66609;SDS011;53468;48.276;14.416;2023-03-07T14:58:47;12.40;;;6.63;;
66609;SDS011;53468;48.276;14.416;2023-03-07T15:03:52;12.85;;;6.82;;
66609;SDS011;53468;48.276;14.416;2023-03-07T15:08:55;11.43;;;6.57;;
66609;SDS011;53468;48.276;14.416;2023-03-07T15:14:02;12.80;;;7.13;;
66609;SDS011;53468;48.276;14.416;2023-03-07T15:19:08;11.82;;;7.13;;
66609;SDS011;53468;48.276;14.416;2023-03-07T15:24:16;11.23;;;6.28;;
66609;SDS011;53468;48.276;14.416;2023-03-07T15:29:24;14.80;;;7.07;;
66609;SDS011;53468;48.276;14.416;2023-03-07T15:34:28;11.75;;;6.07;;
66609;SDS011;53468;48.276;14.416;2023-03-07T15:39:32;15.68;;;7.30;;
66609;SDS011;53468;48.276;14.416;2023-03-07T15:44:36;11.48;;;6.28;;
66609;SDS011;53468;48.276;14.416;2023-03-07T15:49:39;14.80;;;6.65;;
66609;SDS011;53468;48.276;14.416;2023-03-07T15:54:43;13.43;;;7.03;;
66609;SDS011;53468;48.276;14.416;2023-03-07T15:59:54;13.40;;;7.30;;
66609;SDS011;53468;48.276;14.416;2023-03-07T16:05:00;14.80;;;5.82;;
66609;SDS011;53468;48.276;14.416;2023-03-07T16:10:03;13.02;;;6.63;;
66609;SDS011;53468;48.276;14.416;2023-03-07T16:15:11;13.75;;;7.18;;
66609;SDS011;53468;48.276;14.416;2023-03-07T16:20:15;13.35;;;6.53;;
66609;SDS011;53468;48.276;14.416;2023-03-07T16:25:18;15.13;;;7.45;;
66609;SDS011;53468;48.276;14.416;2023-03-07T16:30:23;16.55;;;8.60;;
66609;SDS011;53468;48.276;14.416;2023-03-07T16:35:26;12.90;;;6.45;;
66609;SDS011;53468;48.276;14.416;2023-03-07T16:40:29;13.90;;;7.25;;
66609;SDS011;53468;48.276;14.416;2023-03-07T16:45:33;14.88;;;7.43;;
66609;SDS011;53468;48.276;14.416;2023-03-07T16:50:35;17.40;;;7.93;;
66609;SDS011;53468;48.276;14.416;2023-03-07T16:55:38;15.18;;;7.55;;
66609;SDS011;53468;48.276;14.416;2023-03-07T17:00:42;14.25;;;6.57;;
66609;SDS011;53468;48.276;14.416;2023-03-07T17:05:44;14.20;;;7.68;;
66609;SDS011;53468;48.276;14.416;2023-03-07T17:10:46;14.52;;;7.40;;
66609;SDS011;53468;48.276;14.416;2023-03-07T17:15:50;14.07;;;6.88;;
66609;SDS011;53468;48.276;14.416;2023-03-07T17:20:52;13.18;;;7.45;;
66609;SDS011;53468;48.276;14.416;2023-03-07T17:25:54;18.73;;;7.97;;
66609;SDS011;53468;48.276;14.416;2023-03-07T17:30:57;13.20;;;7.03;;
66609;SDS011;53468;48.276;14.416;2023-03-07T17:36:00;15.77;;;7.28;;
66609;SDS011;53468;48.276;14.416;2023-03-07T17:41:02;15.20;;;7.65;;
66609;SDS011;53468;48.276;14.416;2023-03-07T17:46:07;14.25;;;7.20;;
66609;SDS011;53468;48.276;14.416;2023-03-07T17:51:10;17.40;;;8.50;;
66609;SDS011;53468;48.276;14.416;2023-03-07T17:56:17;13.50;;;6.95;;
66609;SDS011;53468;48.276;14.416;2023-03-07T18:01:20;13.85;;;7.47;;
66609;SDS011;53468;48.276;14.416;2023-03-07T18:06:22;14.80;;;7.38;;
66609;SDS011;53468;48.276;14.416;2023-03-07T18:11:25;14.93;;;8.07;;
66609;SDS011;53468;48.276;14.416;2023-03-07T18:16:29;15.02;;;7.30;;
66609;SDS011;53468;48.276;14.416;2023-03-07T18:21:31;13.65;;;7.13;;
66609;SDS011;53468;48.276;14.416;2023-03-07T18:26:33;15.20;;;6.65;;
66609;SDS011;53468;48.276;14.416;2023-03-07T18:31:37;15.38;;;7.30;;
66609;SDS011;53468;48.276;14.416;2023-03-07T18:36:40;15.70;;;8.57;;
66609;SDS011;53468;48.276;14.416;2023-03-07T18:41:43;20.08;;;8.65;;
66609;SDS011;53468;48.276;14.416;2023-03-07T18:46:47;15.80;;;8.13;;
66609;SDS011;53468;48.276;14.416;2023-03-07T18:51:49;18.58;;;8.73;;
66609;SDS011;53468;48.276;14.416;2023-03-07T18:56:51;16.50;;;8.60;;
66609;SDS011;53468;48.276;14.416;2023-03-07T19:01:54;20.63;;;10.38;;
66609;SDS011;53468;48.276;14.416;2023-03-07T19:07:01;16.70;;;9.98;;
66609;SDS011;53468;48.276;14.416;2023-03-07T19:12:03;18.20;;;9.50;;
66609;SDS011;53468;48.276;14.416;2023-03-07T19:17:08;18.15;;;8.35;;
66609;SDS011;53468;48.276;14.416;2023-03-07T19:22:10;18.95;;;8.50;;
66609;SDS011;53468;48.276;14.416;2023-03-07T19:27:12;19.02;;;10.00;;
66609;SDS011;53468;48.276;14.416;2023-03-07T19:32:16;21.48;;;10.18;;
66609;SDS011;53468;48.276;14.416;2023-03-07T19:37:18;18.63;;;8.77;;
66609;SDS011;53468;48.276;14.416;2023-03-07T19:42:20;20.23;;;9.68;;
66609;SDS011;53468;48.276;14.416;2023-03-07T19:47:24;15.45;;;9.18;;
66609;SDS011;53468;48.276;14.416;2023-03-07T19:52:26;20.33;;;9.52;;
66609;SDS011;53468;48.276;14.416;2023-03-07T19:57:28;27.27;;;13.95;;
66609;SDS011;53468;48.276;14.416;2023-03-07T20:02:34;37.05;;;18.40;;
66609;SDS011;53468;48.276;14.416;2023-03-07T20:07:37;32.47;;;16.08;;
66609;SDS011;53468;48.276;14.416;2023-03-07T20:12:39;33.22;;;15.85;;
66609;SDS011;53468;48.276;14.416;2023-03-07T20:17:43;38.45;;;19.48;;
66609;SDS011;53468;48.276;14.416;2023-03-07T20:22:45;35.05;;;15.65;;
66609;SDS011;53468;48.276;14.416;2023-03-07T20:27:47;26.33;;;14.20;;
66609;SDS011;53468;48.276;14.416;2023-03-07T20:32:50;28.75;;;14.40;;
66609;SDS011;53468;48.276;14.416;2023-03-07T20:37:52;27.60;;;13.98;;
66609;SDS011;53468;48.276;14.416;2023-03-07T20:42:54;20.83;;;11.32;;
66609;SDS011;53468;48.276;14.416;2023-03-07T20:47:58;19.75;;;10.65;;
66609;SDS011;53468;48.276;14.416;2023-03-07T20:53:00;24.38;;;11.82;;
66609;SDS011;53468;48.276;14.416;2023-03-07T20:58:02;23.50;;;11.68;;
66609;SDS011;53468;48.276;14.416;2023-03-07T21:03:05;23.02;;;12.25;;
66609;SDS011;53468;48.276;14.416;2023-03-07T21:08:12;25.50;;;11.93;;
66609;SDS011;53468;48.276;14.416;2023-03-07T21:13:15;24.73;;;11.55;;
66609;SDS011;53468;48.276;14.416;2023-03-07T21:18:19;23.75;;;11.77;;
66609;SDS011;53468;48.276;14.416;2023-03-07T21:23:21;29.08;;;11.77;;
66609;SDS011;53468;48.276;14.416;2023-03-07T21:28:23;25.88;;;11.55;;
66609;SDS011;53468;48.276;14.416;2023-03-07T21:33:26;25.77;;;11.05;;
66609;SDS011;53468;48.276;14.416;2023-03-07T21:38:29;18.30;;;9.50;;
66609;SDS011;53468;48.276;14.416;2023-03-07T21:43:31;21.48;;;10.13;;
66609;SDS011;53468;48.276;14.416;2023-03-07T21:48:37;19.00;;;8.57;;
66609;SDS011;53468;48.276;14.416;2023-03-07T21:53:40;16.50;;;8.68;;
66609;SDS011;53468;48.276;14.416;2023-03-07T21:58:42;17.13;;;7.63;;
66609;SDS011;53468;48.276;14.416;2023-03-07T22:03:49;12.45;;;6.70;;
66609;SDS011;53468;48.276;14.416;2023-03-07T22:08:52;16.83;;;8.27;;
66609;SDS011;53468;48.276;14.416;2023-03-07T22:13:54;12.10;;;6.53;;
66609;SDS011;53468;48.276;14.416;2023-03-07T22:18:57;13.48;;;7.90;;
66609;SDS011;53468;48.276;14.416;2023-03-07T22:23:59;17.42;;;8.15;;
66609;SDS011;53468;48.276;14.416;2023-03-07T22:29:01;18.35;;;7.20;;
66609;SDS011;53468;48.276;14.416;2023-03-07T22:34:04;14.15;;;6.38;;
66609;SDS011;53468;48.276;14.416;2023-03-07T22:39:08;16.30;;;7.68;;
66609;SDS011;53468;48.276;14.416;2023-03-07T22:44:10;14.90;;;6.90;;
66609;SDS011;53468;48.276;14.416;2023-03-07T22:49:14;14.82;;;7.82;;
66609;SDS011;53468;48.276;14.416;2023-03-07T22:54:16;17.67;;;8.63;;
66609;SDS011;53468;48.276;14.416;2023-03-07T22:59:18;18.05;;;9.40;;
66609;SDS011;53468;48.276;14.416;2023-03-07T23:04:21;15.73;;;8.43;;
66609;SDS011;53468;48.276;14.416;2023-03-07T23:09:23;18.90;;;9.88;;
66609;SDS011;53468;48.276;14.416;2023-03-07T23:14:25;14.98;;;7.60;;
66609;SDS011;53468;48.276;14.416;2023-03-07T23:19:28;20.58;;;11.10;;
66609;SDS011;53468;48.276;14.416;2023-03-07T23:24:31;17.08;;;8.55;;
66609;SDS011;53468;48.276;14.416;2023-03-07T23:29:33;18.60;;;7.63;;
66609;SDS011;53468;48.276;14.416;2023-03-07T23:34:36;15.52;;;7.57;;
66609;SDS011;53468;48.276;14.416;2023-03-07T23:39:38;12.65;;;6.82;;
66609;SDS011;53468;48.276;14.416;2023-03-07T23:44:41;14.45;;;6.90;;
66609;SDS011;53468;48.276;14.416;2023-03-07T23:49:44;12.65;;;6.72;;
66609;SDS011;53468;48.276;14.416;2023-03-07T23:54:46;17.00;;;9.05;;
66609;SDS011;53468;48.276;14.416;2023-03-07T23:59:48;13.90;;;7.85;;
